Readville, Massachusetts
Current Conditions -  °F | °C
As of 9:18 AM on Friday 28 Nov 2014 (Local Time) from KOWD Reporting Station
Overcast Overcast  
Wind Chill: 23°   Ceiling: 7500
Heat Index: 31°   Visibility: 10mi
Dew Point: 24°   Wind: 8mph
Humidity: 76%   Direction: 330°NNW
Pressure: 30.07"   Gusts: NA
Location:  42.24°N, 71.13°W
Report Text: KOWD 281418Z 33007KT 10SM SCT018 SCT065 OVC075 M01/M04 A3007 RMK AO2 T10061044
Loading
Personal Weather Stations






























Interactive Weather Map New forecast layout! Learn more

10-Day Weather Forecast

Advertisements
Track Severe Weather on mobile